FE02 weather

Prati Vecchi D'Aguscello Airport
Ferrara (FE), Emilia-Romagna, Italy

Public forecast

Using degrees Celsius for public forecast. Weather courtesy of forecast.io.

Closest aviation weather report (METAR) to Prati Vecchi D'Aguscello Airport

Report is more than 2 hours old.

Closest report is Ferrara Airport, 2.8 nm (5.2 km) WNW. Retrieved 2020/01/24 17:55 UTC (5 hours ago):

LIPF 241755Z 00000KT 3000 BR SCT080 04/02 Q1027 RMK SCT VIS MIN 3000

Closest aviation forecast (TAF) to Prati Vecchi D'Aguscello Airport

Closest forecast is Bologna Guglielmo Marconi Airport, 22.3 nm (41.3 km) SW. Retrieved 2020/01/24 18:00 UTC (5 hours ago):

TAF LIPE 241700Z 2418/2518 VRB05KT 4000 BR SCT020 BECMG 2420/2422 2000 RA TEMPO 2503/2509 SHRA BECMG 2515/2518 BR